sensor_id;sensor_type;location;lat;lon;timestamp;temperature;humidity
71177;DHT22;58877;51.992;4.504;2023-04-03T00:00:16;5.98;69.21
71177;DHT22;58877;51.992;4.504;2023-04-03T00:02:42;6.01;69.14
71177;DHT22;58877;51.992;4.504;2023-04-03T00:05:08;6.02;68.91
71177;DHT22;58877;51.992;4.504;2023-04-03T00:07:34;5.90;68.85
71177;DHT22;58877;51.992;4.504;2023-04-03T00:10:01;5.88;69.34
71177;DHT22;58877;51.992;4.504;2023-04-03T00:12:29;5.94;69.10
71177;DHT22;58877;51.992;4.504;2023-04-03T00:14:55;5.83;69.28
71177;DHT22;58877;51.992;4.504;2023-04-03T00:17:21;5.86;69.56
71177;DHT22;58877;51.992;4.504;2023-04-03T00:19:46;5.78;69.47
71177;DHT22;58877;51.992;4.504;2023-04-03T00:22:12;5.78;69.44
71177;DHT22;58877;51.992;4.504;2023-04-03T00:24:38;5.75;69.25
71177;DHT22;58877;51.992;4.504;2023-04-03T00:27:04;5.77;69.54
71177;DHT22;58877;51.992;4.504;2023-04-03T00:29:30;5.74;69.45
71177;DHT22;58877;51.992;4.504;2023-04-03T00:31:55;5.73;69.54
71177;DHT22;58877;51.992;4.504;2023-04-03T00:34:21;5.73;69.62
71177;DHT22;58877;51.992;4.504;2023-04-03T00:36:46;5.64;69.38
71177;DHT22;58877;51.992;4.504;2023-04-03T00:39:12;5.60;69.54
71177;DHT22;58877;51.992;4.504;2023-04-03T00:41:38;5.63;69.72
71177;DHT22;58877;51.992;4.504;2023-04-03T00:47:11;5.60;69.64
71177;DHT22;58877;51.992;4.504;2023-04-03T00:49:38;5.56;69.69
71177;DHT22;58877;51.992;4.504;2023-04-03T00:52:07;5.51;69.53
71177;DHT22;58877;51.992;4.504;2023-04-03T00:54:36;5.44;69.85
71177;DHT22;58877;51.992;4.504;2023-04-03T00:57:03;5.40;69.98
71177;DHT22;58877;51.992;4.504;2023-04-03T00:59:34;5.43;69.88
71177;DHT22;58877;51.992;4.504;2023-04-03T01:02:01;5.43;69.83
71177;DHT22;58877;51.992;4.504;2023-04-03T01:04:27;5.43;69.71
71177;DHT22;58877;51.992;4.504;2023-04-03T01:06:56;5.43;69.52
71177;DHT22;58877;51.992;4.504;2023-04-03T01:09:22;5.39;69.70
71177;DHT22;58877;51.992;4.504;2023-04-03T01:11:48;5.36;69.67
71177;DHT22;58877;51.992;4.504;2023-04-03T01:14:13;5.36;69.62
71177;DHT22;58877;51.992;4.504;2023-04-03T01:16:39;5.33;69.48
71177;DHT22;58877;51.992;4.504;2023-04-03T01:19:11;5.29;69.65
71177;DHT22;58877;51.992;4.504;2023-04-03T01:22:02;5.27;69.81
71177;DHT22;58877;51.992;4.504;2023-04-03T01:24:36;5.29;69.84
71177;DHT22;58877;51.992;4.504;2023-04-03T01:27:06;5.27;69.84
71177;DHT22;58877;51.992;4.504;2023-04-03T01:29:32;5.30;69.96
71177;DHT22;58877;51.992;4.504;2023-04-03T01:32:03;5.25;69.45
71177;DHT22;58877;51.992;4.504;2023-04-03T01:34:30;5.20;69.78
71177;DHT22;58877;51.992;4.504;2023-04-03T01:36:55;5.19;69.57
71177;DHT22;58877;51.992;4.504;2023-04-03T01:39:21;5.16;69.80
71177;DHT22;58877;51.992;4.504;2023-04-03T01:41:47;5.15;69.90
71177;DHT22;58877;51.992;4.504;2023-04-03T01:44:13;5.15;69.75
71177;DHT22;58877;51.992;4.504;2023-04-03T01:46:39;5.09;70.02
71177;DHT22;58877;51.992;4.504;2023-04-03T01:49:05;5.08;70.18
71177;DHT22;58877;51.992;4.504;2023-04-03T01:51:30;5.05;70.30
71177;DHT22;58877;51.992;4.504;2023-04-03T01:53:56;4.99;70.46
71177;DHT22;58877;51.992;4.504;2023-04-03T01:56:22;4.93;70.78
71177;DHT22;58877;51.992;4.504;2023-04-03T01:58:48;4.92;70.78
71177;DHT22;58877;51.992;4.504;2023-04-03T02:01:13;4.92;71.16
71177;DHT22;58877;51.992;4.504;2023-04-03T02:03:39;4.88;71.39
71177;DHT22;58877;51.992;4.504;2023-04-03T02:06:04;4.79;71.69
71177;DHT22;58877;51.992;4.504;2023-04-03T02:08:30;4.75;72.27
71177;DHT22;58877;51.992;4.504;2023-04-03T02:10:56;4.73;72.34
71177;DHT22;58877;51.992;4.504;2023-04-03T02:13:21;4.69;72.43
71177;DHT22;58877;51.992;4.504;2023-04-03T02:15:47;4.68;72.44
71177;DHT22;58877;51.992;4.504;2023-04-03T02:18:14;4.65;72.86
71177;DHT22;58877;51.992;4.504;2023-04-03T02:20:40;4.65;72.70
71177;DHT22;58877;51.992;4.504;2023-04-03T02:23:06;4.62;72.65
71177;DHT22;58877;51.992;4.504;2023-04-03T02:25:33;4.58;72.74
71177;DHT22;58877;51.992;4.504;2023-04-03T02:27:58;4.54;72.78
71177;DHT22;58877;51.992;4.504;2023-04-03T02:30:24;4.51;73.18
71177;DHT22;58877;51.992;4.504;2023-04-03T02:32:50;4.52;72.86
71177;DHT22;58877;51.992;4.504;2023-04-03T02:35:16;4.49;72.71
71177;DHT22;58877;51.992;4.504;2023-04-03T02:37:41;4.45;72.90
71177;DHT22;58877;51.992;4.504;2023-04-03T02:40:08;4.42;73.10
71177;DHT22;58877;51.992;4.504;2023-04-03T02:42:34;4.40;73.41
71177;DHT22;58877;51.992;4.504;2023-04-03T02:45:00;4.33;73.94
71177;DHT22;58877;51.992;4.504;2023-04-03T02:47:27;4.31;73.62
71177;DHT22;58877;51.992;4.504;2023-04-03T02:49:52;4.38;73.13
71177;DHT22;58877;51.992;4.504;2023-04-03T02:52:18;4.34;73.03
71177;DHT22;58877;51.992;4.504;2023-04-03T02:54:44;4.33;73.10
71177;DHT22;58877;51.992;4.504;2023-04-03T02:57:09;4.27;73.22
71177;DHT22;58877;51.992;4.504;2023-04-03T02:59:38;4.25;73.55
71177;DHT22;58877;51.992;4.504;2023-04-03T03:02:08;4.24;73.55
71177;DHT22;58877;51.992;4.504;2023-04-03T03:04:34;4.18;73.73
71177;DHT22;58877;51.992;4.504;2023-04-03T03:07:00;4.20;73.67
71177;DHT22;58877;51.992;4.504;2023-04-03T03:09:25;4.16;73.76
71177;DHT22;58877;51.992;4.504;2023-04-03T03:11:51;4.16;73.74
71177;DHT22;58877;51.992;4.504;2023-04-03T03:14:17;4.07;74.11
71177;DHT22;58877;51.992;4.504;2023-04-03T03:16:43;4.07;74.09
71177;DHT22;58877;51.992;4.504;2023-04-03T03:19:10;4.04;74.70
71177;DHT22;58877;51.992;4.504;2023-04-03T03:21:36;3.96;74.97
71177;DHT22;58877;51.992;4.504;2023-04-03T03:24:02;4.00;74.87
71177;DHT22;58877;51.992;4.504;2023-04-03T03:26:28;3.91;75.00
71177;DHT22;58877;51.992;4.504;2023-04-03T03:28:53;3.90;75.20
71177;DHT22;58877;51.992;4.504;2023-04-03T03:31:20;3.86;75.35
71177;DHT22;58877;51.992;4.504;2023-04-03T03:33:46;3.84;75.53
71177;DHT22;58877;51.992;4.504;2023-04-03T03:36:12;3.73;75.79
71177;DHT22;58877;51.992;4.504;2023-04-03T03:38:37;3.69;75.97
71177;DHT22;58877;51.992;4.504;2023-04-03T03:41:03;3.52;76.55
71177;DHT22;58877;51.992;4.504;2023-04-03T03:43:29;3.53;76.52
71177;DHT22;58877;51.992;4.504;2023-04-03T03:45:55;3.55;76.58
71177;DHT22;58877;51.992;4.504;2023-04-03T03:48:21;3.55;76.46
71177;DHT22;58877;51.992;4.504;2023-04-03T03:50:47;3.56;76.45
71177;DHT22;58877;51.992;4.504;2023-04-03T03:53:14;3.44;76.74
71177;DHT22;58877;51.992;4.504;2023-04-03T03:55:40;3.42;76.77
71177;DHT22;58877;51.992;4.504;2023-04-03T03:58:06;3.36;77.00
71177;DHT22;58877;51.992;4.504;2023-04-03T04:00:32;3.33;77.18
71177;DHT22;58877;51.992;4.504;2023-04-03T04:02:58;3.32;77.33
71177;DHT22;58877;51.992;4.504;2023-04-03T04:05:24;3.33;77.39
71177;DHT22;58877;51.992;4.504;2023-04-03T04:07:50;3.32;77.44
71177;DHT22;58877;51.992;4.504;2023-04-03T04:10:16;3.35;77.28
71177;DHT22;58877;51.992;4.504;2023-04-03T04:12:42;3.25;77.34
71177;DHT22;58877;51.992;4.504;2023-04-03T04:15:08;3.21;77.65
71177;DHT22;58877;51.992;4.504;2023-04-03T04:17:34;3.16;77.66
71177;DHT22;58877;51.992;4.504;2023-04-03T04:20:01;3.13;77.83
71177;DHT22;58877;51.992;4.504;2023-04-03T04:22:27;3.09;78.19
71177;DHT22;58877;51.992;4.504;2023-04-03T04:24:53;3.08;78.38
71177;DHT22;58877;51.992;4.504;2023-04-03T04:27:19;3.07;78.43
71177;DHT22;58877;51.992;4.504;2023-04-03T04:29:44;3.05;78.47
71177;DHT22;58877;51.992;4.504;2023-04-03T04:32:10;3.02;78.59
71177;DHT22;58877;51.992;4.504;2023-04-03T04:34:35;3.04;78.65
71177;DHT22;58877;51.992;4.504;2023-04-03T04:37:01;3.04;78.74
71177;DHT22;58877;51.992;4.504;2023-04-03T04:39:26;3.04;78.68
71177;DHT22;58877;51.992;4.504;2023-04-03T04:41:52;3.01;78.60
71177;DHT22;58877;51.992;4.504;2023-04-03T04:44:17;3.01;78.67
71177;DHT22;58877;51.992;4.504;2023-04-03T04:46:43;3.07;78.60
71177;DHT22;58877;51.992;4.504;2023-04-03T04:49:09;3.08;78.54
71177;DHT22;58877;51.992;4.504;2023-04-03T04:51:34;3.02;78.45
71177;DHT22;58877;51.992;4.504;2023-04-03T04:54:00;2.94;78.77
71177;DHT22;58877;51.992;4.504;2023-04-03T04:56:25;2.94;78.83
71177;DHT22;58877;51.992;4.504;2023-04-03T04:58:51;2.83;79.10
71177;DHT22;58877;51.992;4.504;2023-04-03T05:01:17;2.80;79.54
71177;DHT22;58877;51.992;4.504;2023-04-03T05:03:44;2.78;79.49
71177;DHT22;58877;51.992;4.504;2023-04-03T05:06:10;2.80;79.47
71177;DHT22;58877;51.992;4.504;2023-04-03T05:08:35;2.83;79.46
71177;DHT22;58877;51.992;4.504;2023-04-03T05:11:01;2.78;79.62
71177;DHT22;58877;51.992;4.504;2023-04-03T05:13:27;2.80;79.49
71177;DHT22;58877;51.992;4.504;2023-04-03T05:15:52;2.81;79.60
71177;DHT22;58877;51.992;4.504;2023-04-03T05:18:18;2.80;79.58
71177;DHT22;58877;51.992;4.504;2023-04-03T05:20:43;2.84;79.34
71177;DHT22;58877;51.992;4.504;2023-04-03T05:23:10;2.87;79.44
71177;DHT22;58877;51.992;4.504;2023-04-03T05:25:39;2.87;79.52
71177;DHT22;58877;51.992;4.504;2023-04-03T05:28:06;2.88;79.48
71177;DHT22;58877;51.992;4.504;2023-04-03T05:30:31;2.88;79.49
71177;DHT22;58877;51.992;4.504;2023-04-03T05:32:58;2.91;79.61
71177;DHT22;58877;51.992;4.504;2023-04-03T05:35:24;2.91;79.55
71177;DHT22;58877;51.992;4.504;2023-04-03T05:37:50;2.94;79.53
71177;DHT22;58877;51.992;4.504;2023-04-03T05:40:16;3.01;79.61
71177;DHT22;58877;51.992;4.504;2023-04-03T05:42:42;3.02;79.60
71177;DHT22;58877;51.992;4.504;2023-04-03T05:45:07;3.02;79.78
71177;DHT22;58877;51.992;4.504;2023-04-03T05:47:33;3.04;79.72
71177;DHT22;58877;51.992;4.504;2023-04-03T05:49:59;3.11;79.72
71177;DHT22;58877;51.992;4.504;2023-04-03T05:52:37;3.15;79.52
71177;DHT22;58877;51.992;4.504;2023-04-03T05:55:04;3.21;79.61
71177;DHT22;58877;51.992;4.504;2023-04-03T05:57:30;3.22;79.34
71177;DHT22;58877;51.992;4.504;2023-04-03T05:59:55;3.18;79.49
71177;DHT22;58877;51.992;4.504;2023-04-03T06:02:23;3.26;79.78
71177;DHT22;58877;51.992;4.504;2023-04-03T06:04:49;3.38;79.36
71177;DHT22;58877;51.992;4.504;2023-04-03T06:07:18;3.40;79.22
71177;DHT22;58877;51.992;4.504;2023-04-03T06:09:48;3.48;79.26
71177;DHT22;58877;51.992;4.504;2023-04-03T06:12:13;3.51;79.33
71177;DHT22;58877;51.992;4.504;2023-04-03T06:14:40;3.53;79.09
71177;DHT22;58877;51.992;4.504;2023-04-03T06:17:07;3.60;79.20
71177;DHT22;58877;51.992;4.504;2023-04-03T06:19:35;3.74;78.90
71177;DHT22;58877;51.992;4.504;2023-04-03T06:22:01;3.86;78.57
71177;DHT22;58877;51.992;4.504;2023-04-03T06:24:29;3.89;78.71
71177;DHT22;58877;51.992;4.504;2023-04-03T06:26:56;4.00;78.76
71177;DHT22;58877;51.992;4.504;2023-04-03T06:29:23;4.07;78.12
71177;DHT22;58877;51.992;4.504;2023-04-03T06:31:50;4.14;78.18
71177;DHT22;58877;51.992;4.504;2023-04-03T06:34:17;4.22;78.04
71177;DHT22;58877;51.992;4.504;2023-04-03T06:36:44;4.33;77.94
71177;DHT22;58877;51.992;4.504;2023-04-03T06:39:15;4.51;77.16
71177;DHT22;58877;51.992;4.504;2023-04-03T06:41:41;4.54;76.99
71177;DHT22;58877;51.992;4.504;2023-04-03T06:44:07;4.58;76.43
71177;DHT22;58877;51.992;4.504;2023-04-03T06:46:37;4.68;76.45
71177;DHT22;58877;51.992;4.504;2023-04-03T06:49:04;4.78;75.80
71177;DHT22;58877;51.992;4.504;2023-04-03T06:51:30;4.78;75.08
71177;DHT22;58877;51.992;4.504;2023-04-03T06:53:58;4.91;74.92
71177;DHT22;58877;51.992;4.504;2023-04-03T06:56:24;5.00;74.59
71177;DHT22;58877;51.992;4.504;2023-04-03T06:58:51;5.03;74.16
71177;DHT22;58877;51.992;4.504;2023-04-03T07:01:18;5.12;74.26
71177;DHT22;58877;51.992;4.504;2023-04-03T07:03:48;5.25;74.03
71177;DHT22;58877;51.992;4.504;2023-04-03T07:06:16;5.43;73.44
71177;DHT22;58877;51.992;4.504;2023-04-03T07:08:43;5.54;73.14
71177;DHT22;58877;51.992;4.504;2023-04-03T07:11:11;5.54;72.33
71177;DHT22;58877;51.992;4.504;2023-04-03T07:13:38;5.58;71.76
71177;DHT22;58877;51.992;4.504;2023-04-03T07:16:05;5.70;71.60
71177;DHT22;58877;51.992;4.504;2023-04-03T07:18:32;5.80;71.14
71177;DHT22;58877;51.992;4.504;2023-04-03T07:20:58;5.93;70.55
71177;DHT22;58877;51.992;4.504;2023-04-03T07:23:24;5.97;70.03
71177;DHT22;58877;51.992;4.504;2023-04-03T07:25:51;5.97;70.03
71177;DHT22;58877;51.992;4.504;2023-04-03T07:28:19;5.97;69.27
71177;DHT22;58877;51.992;4.504;2023-04-03T07:30:54;5.94;69.45
71177;DHT22;58877;51.992;4.504;2023-04-03T07:33:24;6.00;69.23
71177;DHT22;58877;51.992;4.504;2023-04-03T07:35:50;6.12;68.77
71177;DHT22;58877;51.992;4.504;2023-04-03T07:38:15;6.26;68.67
71177;DHT22;58877;51.992;4.504;2023-04-03T07:40:47;6.29;68.43
71177;DHT22;58877;51.992;4.504;2023-04-03T07:43:13;6.42;68.34
71177;DHT22;58877;51.992;4.504;2023-04-03T07:45:39;6.59;68.06
71177;DHT22;58877;51.992;4.504;2023-04-03T07:48:05;6.69;67.05
71177;DHT22;58877;51.992;4.504;2023-04-03T07:50:30;6.68;66.72
71177;DHT22;58877;51.992;4.504;2023-04-03T07:52:58;6.73;67.18
71177;DHT22;58877;51.992;4.504;2023-04-03T07:55:24;6.80;66.24
71177;DHT22;58877;51.992;4.504;2023-04-03T07:57:50;6.73;65.53
71177;DHT22;58877;51.992;4.504;2023-04-03T08:00:17;6.82;65.38
71177;DHT22;58877;51.992;4.504;2023-04-03T08:02:44;7.03;65.87
71177;DHT22;58877;51.992;4.504;2023-04-03T08:05:10;7.16;65.59
71177;DHT22;58877;51.992;4.504;2023-04-03T08:07:39;7.14;64.49
71177;DHT22;58877;51.992;4.504;2023-04-03T08:10:05;7.17;64.44
71177;DHT22;58877;51.992;4.504;2023-04-03T08:12:31;7.30;64.48
71177;DHT22;58877;51.992;4.504;2023-04-03T08:14:59;7.34;64.23
71177;DHT22;58877;51.992;4.504;2023-04-03T08:17:25;7.38;62.49
71177;DHT22;58877;51.992;4.504;2023-04-03T08:19:51;7.37;62.43
71177;DHT22;58877;51.992;4.504;2023-04-03T08:22:17;7.46;62.09
71177;DHT22;58877;51.992;4.504;2023-04-03T08:24:43;7.58;62.50
71177;DHT22;58877;51.992;4.504;2023-04-03T08:27:09;7.71;61.59
71177;DHT22;58877;51.992;4.504;2023-04-03T08:29:35;7.89;61.74
71177;DHT22;58877;51.992;4.504;2023-04-03T08:32:04;7.96;61.41
71177;DHT22;58877;51.992;4.504;2023-04-03T08:34:30;8.10;61.68
71177;DHT22;58877;51.992;4.504;2023-04-03T08:36:56;8.07;61.27
71177;DHT22;58877;51.992;4.504;2023-04-03T08:39:21;8.23;61.05
71177;DHT22;58877;51.992;4.504;2023-04-03T08:41:47;8.30;59.84
71177;DHT22;58877;51.992;4.504;2023-04-03T08:47:49;8.46;59.77
71177;DHT22;58877;51.992;4.504;2023-04-03T08:50:20;8.79;59.23
71177;DHT22;58877;51.992;4.504;2023-04-03T08:52:52;8.81;57.35
71177;DHT22;58877;51.992;4.504;2023-04-03T08:58:21;8.71;55.80
71177;DHT22;58877;51.992;4.504;2023-04-03T09:01:02;8.60;54.38
71177;DHT22;58877;51.992;4.504;2023-04-03T09:03:38;8.52;54.58
71177;DHT22;58877;51.992;4.504;2023-04-03T09:06:12;8.67;54.28
71177;DHT22;58877;51.992;4.504;2023-04-03T09:14:28;8.88;51.57
71177;DHT22;58877;51.992;4.504;2023-04-03T09:17:06;8.94;50.21
71177;DHT22;58877;51.992;4.504;2023-04-03T09:19:53;8.74;48.45
71177;DHT22;58877;51.992;4.504;2023-04-03T09:22:28;8.80;49.65
71177;DHT22;58877;51.992;4.504;2023-04-03T09:25:17;8.94;48.16
71177;DHT22;58877;51.992;4.504;2023-04-03T09:27:44;9.05;47.26
71177;DHT22;58877;51.992;4.504;2023-04-03T09:30:21;9.08;47.22
71177;DHT22;58877;51.992;4.504;2023-04-03T09:32:49;9.22;45.64
71177;DHT22;58877;51.992;4.504;2023-04-03T09:35:24;9.32;45.31
71177;DHT22;58877;51.992;4.504;2023-04-03T09:37:54;9.35;44.52
71177;DHT22;58877;51.992;4.504;2023-04-03T09:42:53;9.36;41.40
71177;DHT22;58877;51.992;4.504;2023-04-03T09:45:33;9.21;41.62
71177;DHT22;58877;51.992;4.504;2023-04-03T09:50:53;9.44;42.07
71177;DHT22;58877;51.992;4.504;2023-04-03T09:56:04;9.59;44.45
71177;DHT22;58877;51.992;4.504;2023-04-03T09:58:38;9.69;45.72
71177;DHT22;58877;51.992;4.504;2023-04-03T10:01:09;9.74;43.04
71177;DHT22;58877;51.992;4.504;2023-04-03T10:03:45;9.52;40.85
71177;DHT22;58877;51.992;4.504;2023-04-03T10:06:23;9.54;42.32
71177;DHT22;58877;51.992;4.504;2023-04-03T10:09:00;9.68;41.08
71177;DHT22;58877;51.992;4.504;2023-04-03T10:11:26;9.63;42.02
71177;DHT22;58877;51.992;4.504;2023-04-03T10:13:56;9.61;42.56
71177;DHT22;58877;51.992;4.504;2023-04-03T10:16:28;9.85;42.31
71177;DHT22;58877;51.992;4.504;2023-04-03T10:19:12;9.99;43.03
71177;DHT22;58877;51.992;4.504;2023-04-03T10:27:55;10.27;43.03
71177;DHT22;58877;51.992;4.504;2023-04-03T10:33:31;10.54;39.76
71177;DHT22;58877;51.992;4.504;2023-04-03T10:36:19;10.46;38.20
71177;DHT22;58877;51.992;4.504;2023-04-03T10:41:44;10.43;37.98
71177;DHT22;58877;51.992;4.504;2023-04-03T10:47:02;10.65;37.84
71177;DHT22;58877;51.992;4.504;2023-04-03T10:54:54;10.74;36.46
71177;DHT22;58877;51.992;4.504;2023-04-03T10:57:25;10.74;37.34
71177;DHT22;58877;51.992;4.504;2023-04-03T11:00:19;10.78;38.57
71177;DHT22;58877;51.992;4.504;2023-04-03T11:02:58;10.71;38.18
71177;DHT22;58877;51.992;4.504;2023-04-03T11:05:39;10.67;36.13
71177;DHT22;58877;51.992;4.504;2023-04-03T11:08:21;10.74;37.36
71177;DHT22;58877;51.992;4.504;2023-04-03T11:10:51;10.78;37.26
71177;DHT22;58877;51.992;4.504;2023-04-03T11:16:30;10.77;37.86
71177;DHT22;58877;51.992;4.504;2023-04-03T11:21:39;10.84;38.18
71177;DHT22;58877;51.992;4.504;2023-04-03T11:24:20;10.91;37.49
71177;DHT22;58877;51.992;4.504;2023-04-03T11:26:50;11.08;34.66
71177;DHT22;58877;51.992;4.504;2023-04-03T11:29:37;11.12;35.00
71177;DHT22;58877;51.992;4.504;2023-04-03T11:32:48;11.29;36.16
71177;DHT22;58877;51.992;4.504;2023-04-03T11:35:17;11.31;34.03
71177;DHT22;58877;51.992;4.504;2023-04-03T11:38:04;11.43;35.46
71177;DHT22;58877;51.992;4.504;2023-04-03T11:40:39;11.43;32.67
71177;DHT22;58877;51.992;4.504;2023-04-03T11:43:21;11.25;34.84
71177;DHT22;58877;51.992;4.504;2023-04-03T11:45:54;11.34;33.45
71177;DHT22;58877;51.992;4.504;2023-04-03T11:56:58;11.46;32.99
71177;DHT22;58877;51.992;4.504;2023-04-03T11:59:24;11.52;33.33
71177;DHT22;58877;51.992;4.504;2023-04-03T12:01:57;11.55;31.20
71177;DHT22;58877;51.992;4.504;2023-04-03T12:04:27;11.62;31.34
71177;DHT22;58877;51.992;4.504;2023-04-03T12:07:18;11.59;32.24
71177;DHT22;58877;51.992;4.504;2023-04-03T12:12:29;11.73;33.05
71177;DHT22;58877;51.992;4.504;2023-04-03T12:15:23;11.91;31.89
71177;DHT22;58877;51.992;4.504;2023-04-03T12:17:49;11.97;32.30
71177;DHT22;58877;51.992;4.504;2023-04-03T12:20:46;11.90;30.78
71177;DHT22;58877;51.992;4.504;2023-04-03T12:23:33;12.06;30.66
71177;DHT22;58877;51.992;4.504;2023-04-03T12:28:48;12.00;32.76
71177;DHT22;58877;51.992;4.504;2023-04-03T12:31:20;12.04;32.04
71177;DHT22;58877;51.992;4.504;2023-04-03T12:48:17;12.19;31.81
71177;DHT22;58877;51.992;4.504;2023-04-03T12:50:47;12.06;32.96
71177;DHT22;58877;51.992;4.504;2023-04-03T12:53:23;11.90;32.60
71177;DHT22;58877;51.992;4.504;2023-04-03T12:55:55;12.04;33.50
71177;DHT22;58877;51.992;4.504;2023-04-03T12:58:27;12.10;35.04
71177;DHT22;58877;51.992;4.504;2023-04-03T13:01:16;12.23;33.20
71177;DHT22;58877;51.992;4.504;2023-04-03T13:03:56;12.23;33.94
71177;DHT22;58877;51.992;4.504;2023-04-03T13:06:27;12.27;33.67
71177;DHT22;58877;51.992;4.504;2023-04-03T13:08:58;12.20;34.19
71177;DHT22;58877;51.992;4.504;2023-04-03T13:11:31;12.17;34.60
71177;DHT22;58877;51.992;4.504;2023-04-03T13:14:02;12.30;34.24
71177;DHT22;58877;51.992;4.504;2023-04-03T13:16:31;12.31;35.16
71177;DHT22;58877;51.992;4.504;2023-04-03T13:18:58;12.37;34.39
71177;DHT22;58877;51.992;4.504;2023-04-03T13:21:25;12.24;34.93
71177;DHT22;58877;51.992;4.504;2023-04-03T13:23:59;12.40;34.64
71177;DHT22;58877;51.992;4.504;2023-04-03T13:26:29;12.55;35.82
71177;DHT22;58877;51.992;4.504;2023-04-03T13:29:06;12.63;35.53
71177;DHT22;58877;51.992;4.504;2023-04-03T13:31:39;12.61;35.04
71177;DHT22;58877;51.992;4.504;2023-04-03T13:34:27;12.69;35.94
71177;DHT22;58877;51.992;4.504;2023-04-03T13:39:27;12.48;34.90
71177;DHT22;58877;51.992;4.504;2023-04-03T13:41:55;12.53;34.89
71177;DHT22;58877;51.992;4.504;2023-04-03T13:51:52;13.12;35.75
71177;DHT22;58877;51.992;4.504;2023-04-03T13:54:45;13.22;35.38
71177;DHT22;58877;51.992;4.504;2023-04-03T13:57:16;13.04;34.35
71177;DHT22;58877;51.992;4.504;2023-04-03T13:59:42;12.94;33.94
71177;DHT22;58877;51.992;4.504;2023-04-03T14:02:26;12.83;33.99
71177;DHT22;58877;51.992;4.504;2023-04-03T14:04:57;12.80;34.25
71177;DHT22;58877;51.992;4.504;2023-04-03T14:07:27;12.85;34.50
71177;DHT22;58877;51.992;4.504;2023-04-03T14:09:57;12.91;35.38
71177;DHT22;58877;51.992;4.504;2023-04-03T14:12:38;12.99;35.57
71177;DHT22;58877;51.992;4.504;2023-04-03T14:17:41;13.26;34.84
71177;DHT22;58877;51.992;4.504;2023-04-03T14:20:14;13.25;34.31
71177;DHT22;58877;51.992;4.504;2023-04-03T14:22:41;13.30;34.93
71177;DHT22;58877;51.992;4.504;2023-04-03T14:25:07;13.35;35.11
71177;DHT22;58877;51.992;4.504;2023-04-03T14:27:48;13.40;35.60
71177;DHT22;58877;51.992;4.504;2023-04-03T14:30:24;13.50;35.27
71177;DHT22;58877;51.992;4.504;2023-04-03T14:32:50;13.76;33.71
71177;DHT22;58877;51.992;4.504;2023-04-03T14:35:20;13.70;33.29
71177;DHT22;58877;51.992;4.504;2023-04-03T14:37:50;13.83;34.50
71177;DHT22;58877;51.992;4.504;2023-04-03T14:40:21;13.99;32.85
71177;DHT22;58877;51.992;4.504;2023-04-03T14:42:52;13.91;32.56
71177;DHT22;58877;51.992;4.504;2023-04-03T14:45:21;14.03;33.55
71177;DHT22;58877;51.992;4.504;2023-04-03T14:47:52;14.20;33.54
71177;DHT22;58877;51.992;4.504;2023-04-03T14:50:30;14.31;32.73
71177;DHT22;58877;51.992;4.504;2023-04-03T14:52:58;14.65;32.98
71177;DHT22;58877;51.992;4.504;2023-04-03T14:55:25;15.18;30.23
71177;DHT22;58877;51.992;4.504;2023-04-03T14:57:58;15.83;29.65
71177;DHT22;58877;51.992;4.504;2023-04-03T15:00:24;16.72;28.69
71177;DHT22;58877;51.992;4.504;2023-04-03T15:02:53;17.27;28.78
71177;DHT22;58877;51.992;4.504;2023-04-03T15:05:19;17.77;27.51
71177;DHT22;58877;51.992;4.504;2023-04-03T15:07:50;18.14;26.62
71177;DHT22;58877;51.992;4.504;2023-04-03T15:10:20;18.65;27.12
71177;DHT22;58877;51.992;4.504;2023-04-03T15:12:47;18.73;26.21
71177;DHT22;58877;51.992;4.504;2023-04-03T15:15:18;19.10;25.20
71177;DHT22;58877;51.992;4.504;2023-04-03T15:17:49;19.07;26.28
71177;DHT22;58877;51.992;4.504;2023-04-03T15:20:24;18.77;25.48
71177;DHT22;58877;51.992;4.504;2023-04-03T15:23:02;18.69;26.57
71177;DHT22;58877;51.992;4.504;2023-04-03T15:25:29;18.58;26.42
71177;DHT22;58877;51.992;4.504;2023-04-03T15:27:58;19.16;25.70
71177;DHT22;58877;51.992;4.504;2023-04-03T15:30:26;19.20;24.31
71177;DHT22;58877;51.992;4.504;2023-04-03T15:32:52;18.83;25.59
71177;DHT22;58877;51.992;4.504;2023-04-03T15:35:22;18.72;26.30
71177;DHT22;58877;51.992;4.504;2023-04-03T15:37:50;18.63;25.27
71177;DHT22;58877;51.992;4.504;2023-04-03T15:40:17;18.76;24.42
71177;DHT22;58877;51.992;4.504;2023-04-03T15:42:42;18.47;26.18
71177;DHT22;58877;51.992;4.504;2023-04-03T15:45:11;18.77;24.69
71177;DHT22;58877;51.992;4.504;2023-04-03T15:47:37;19.04;26.32
71177;DHT22;58877;51.992;4.504;2023-04-03T15:50:04;18.79;25.03
71177;DHT22;58877;51.992;4.504;2023-04-03T15:52:32;18.93;25.08
71177;DHT22;58877;51.992;4.504;2023-04-03T15:54:58;18.73;25.08
71177;DHT22;58877;51.992;4.504;2023-04-03T15:57:24;18.89;25.84
71177;DHT22;58877;51.992;4.504;2023-04-03T15:59:52;19.16;25.38
71177;DHT22;58877;51.992;4.504;2023-04-03T16:02:23;19.13;24.97
71177;DHT22;58877;51.992;4.504;2023-04-03T16:04:53;18.96;24.26
71177;DHT22;58877;51.992;4.504;2023-04-03T16:07:29;18.37;23.50
71177;DHT22;58877;51.992;4.504;2023-04-03T16:09:56;18.19;25.11
71177;DHT22;58877;51.992;4.504;2023-04-03T16:12:22;18.51;25.84
71177;DHT22;58877;51.992;4.504;2023-04-03T16:14:48;18.59;25.34
71177;DHT22;58877;51.992;4.504;2023-04-03T16:17:14;18.44;25.74
71177;DHT22;58877;51.992;4.504;2023-04-03T16:19:46;18.75;25.07
71177;DHT22;58877;51.992;4.504;2023-04-03T16:22:14;18.85;25.17
71177;DHT22;58877;51.992;4.504;2023-04-03T16:24:40;18.85;25.24
71177;DHT22;58877;51.992;4.504;2023-04-03T16:27:06;18.66;25.60
71177;DHT22;58877;51.992;4.504;2023-04-03T16:29:32;18.51;25.94
71177;DHT22;58877;51.992;4.504;2023-04-03T16:32:02;18.25;25.09
71177;DHT22;58877;51.992;4.504;2023-04-03T16:34:34;18.17;25.25
71177;DHT22;58877;51.992;4.504;2023-04-03T16:37:00;18.34;24.86
71177;DHT22;58877;51.992;4.504;2023-04-03T16:39:29;18.18;25.23
71177;DHT22;58877;51.992;4.504;2023-04-03T16:41:54;17.93;25.15
71177;DHT22;58877;51.992;4.504;2023-04-03T16:44:20;17.53;25.46
71177;DHT22;58877;51.992;4.504;2023-04-03T16:46:46;17.32;25.92
71177;DHT22;58877;51.992;4.504;2023-04-03T16:49:12;17.40;26.45
71177;DHT22;58877;51.992;4.504;2023-04-03T16:51:38;17.64;26.63
71177;DHT22;58877;51.992;4.504;2023-04-03T16:54:04;17.66;26.41
71177;DHT22;58877;51.992;4.504;2023-04-03T16:56:30;17.22;26.30
71177;DHT22;58877;51.992;4.504;2023-04-03T16:58:55;17.09;27.68
71177;DHT22;58877;51.992;4.504;2023-04-03T17:01:22;16.66;27.16
71177;DHT22;58877;51.992;4.504;2023-04-03T17:03:50;16.56;28.04
71177;DHT22;58877;51.992;4.504;2023-04-03T17:06:19;16.79;27.64
71177;DHT22;58877;51.992;4.504;2023-04-03T17:08:50;16.95;28.71
71177;DHT22;58877;51.992;4.504;2023-04-03T17:11:17;16.93;28.80
71177;DHT22;58877;51.992;4.504;2023-04-03T17:13:49;16.64;28.93
71177;DHT22;58877;51.992;4.504;2023-04-03T17:16:16;16.51;29.19
71177;DHT22;58877;51.992;4.504;2023-04-03T17:18:43;16.17;29.25
71177;DHT22;58877;51.992;4.504;2023-04-03T17:21:11;15.61;30.40